createdAt,value
2018-11-20T03:38:11.016Z,85.27
2018-11-20T03:39:10.972Z,84.80
2018-11-20T03:40:10.975Z,84.89
2018-11-20T03:41:10.981Z,85.08
2018-11-20T03:42:10.990Z,84.70
2018-11-20T03:43:10.994Z,85.17
2018-11-20T03:44:11.001Z,85.08
2018-11-20T03:45:11.007Z,84.80
2018-11-20T03:46:11.019Z,85.27
2018-11-20T03:47:11.022Z,85.36
2018-11-20T03:48:11.037Z,85.17
2018-11-20T03:49:11.041Z,84.80
2018-11-20T03:50:11.048Z,84.99
2018-11-20T03:51:11.059Z,85.08
2018-11-20T03:52:11.063Z,84.80
2018-11-20T03:53:11.072Z,85.17
2018-11-20T03:54:11.081Z,84.89
2018-11-20T03:55:11.092Z,85.17
2018-11-20T03:56:11.100Z,85.17
2018-11-20T03:57:11.111Z,85.17
2018-11-20T03:58:11.120Z,84.80
2018-11-20T03:59:11.137Z,85.17
2018-11-20T04:00:11.145Z,85.17
2018-11-20T04:01:11.152Z,85.17
2018-11-20T04:02:11.160Z,85.08
2018-11-20T04:03:11.188Z,85.27
2018-11-20T04:04:11.178Z,85.08
2018-11-20T04:05:11.195Z,85.17
2018-11-20T04:06:11.213Z,84.99
2018-11-20T04:07:11.210Z,85.17
2018-11-20T04:08:11.219Z,85.27
2018-11-20T04:09:11.239Z,85.27
2018-11-20T04:10:11.242Z,85.17
2018-11-20T04:11:11.249Z,85.46
2018-11-20T04:12:11.264Z,86.03
2018-11-20T04:13:11.278Z,86.03
2018-11-20T04:14:11.282Z,85.55
2018-11-20T04:15:11.293Z,85.08
2018-11-20T04:16:11.301Z,85.65
2018-11-20T04:17:11.311Z,86.03
2018-11-20T04:18:11.326Z,85.74
2018-11-20T04:19:11.332Z,85.84
2018-11-20T04:20:11.344Z,85.65
2018-11-20T04:21:11.353Z,85.93
2018-11-20T04:22:11.362Z,85.08
2018-11-20T04:23:11.379Z,84.99
2018-11-20T04:24:11.384Z,85.84
2018-11-20T04:25:11.397Z,85.74
2018-11-20T04:26:11.407Z,85.93
2018-11-20T04:27:11.417Z,86.03
2018-11-20T04:28:11.432Z,85.74
2018-11-20T04:29:11.441Z,85.65
2018-11-20T04:30:11.450Z,85.17
2018-11-20T04:31:11.463Z,85.27
2018-11-20T04:32:11.468Z,85.17
2018-11-20T04:33:11.481Z,85.08
2018-11-20T04:34:11.496Z,86.12
2018-11-20T04:35:11.505Z,85.46
2018-11-20T04:36:11.524Z,85.46
2018-11-20T04:37:11.527Z,85.36
2018-11-20T04:38:11.539Z,85.08
2018-11-20T04:39:11.555Z,85.36
2018-11-20T04:40:11.561Z,85.17
2018-11-20T04:41:11.585Z,85.46
2018-11-20T04:42:11.578Z,86.03
2018-11-20T04:43:11.587Z,85.93
2018-11-20T04:44:11.601Z,85.84
2018-11-20T04:45:11.613Z,85.84
2018-11-20T04:46:11.622Z,85.84
2018-11-20T04:47:11.637Z,86.03
2018-11-20T04:48:11.647Z,85.74
2018-11-20T04:49:11.661Z,86.16
2018-11-20T04:50:11.665Z,85.84
2018-11-20T04:51:11.676Z,85.93
2018-11-20T04:52:11.687Z,85.93
2018-11-20T04:53:11.697Z,85.84
2018-11-20T04:54:11.727Z,86.03
2018-11-20T04:55:11.723Z,85.65
2018-11-20T04:56:11.733Z,86.03
2018-11-20T04:57:11.741Z,85.84
2018-11-20T04:58:11.754Z,85.88
2018-11-20T04:59:11.764Z,85.17
2018-11-20T05:00:11.782Z,85.84
2018-11-20T05:01:11.789Z,85.84
2018-11-20T05:02:11.797Z,85.88
2018-11-20T05:03:11.806Z,85.69
2018-11-20T05:04:11.828Z,85.74
2018-11-20T05:05:11.830Z,85.65
2018-11-20T05:06:11.839Z,85.13
2018-11-20T05:07:11.848Z,85.27
2018-11-20T05:08:11.865Z,86.07
2018-11-20T05:09:11.871Z,85.84
2018-11-20T05:10:11.884Z,85.93
2018-11-20T05:11:11.893Z,85.97
2018-11-20T05:12:11.923Z,85.97
2018-11-20T05:13:11.929Z,85.69
2018-11-20T05:14:11.923Z,86.03
2018-11-20T05:15:11.957Z,85.31
2018-11-20T05:16:11.948Z,86.07
2018-11-20T05:17:11.964Z,85.31
2018-11-20T05:18:11.970Z,85.88
2018-11-20T05:19:11.982Z,85.97
2018-11-20T05:20:11.995Z,85.84
2018-11-20T05:21:12.001Z,85.69
2018-11-20T05:22:12.009Z,86.07
2018-11-20T05:23:12.024Z,85.93
2018-11-20T05:24:12.033Z,86.07
2018-11-20T05:25:12.046Z,85.69
2018-11-20T05:26:12.057Z,85.69
2018-11-20T05:27:12.069Z,86.03
2018-11-20T05:28:12.092Z,85.93
2018-11-20T05:29:12.093Z,85.84
2018-11-20T05:30:12.101Z,85.93
2018-11-20T05:31:12.213Z,85.69
2018-11-20T05:32:12.127Z,86.26
2018-11-20T05:33:12.131Z,86.07
2018-11-20T05:34:12.140Z,86.26
2018-11-20T05:35:12.158Z,86.31
2018-11-20T05:36:12.168Z,86.31
2018-11-20T05:37:12.177Z,85.93
2018-11-20T05:38:12.188Z,86.03
2018-11-20T05:39:12.197Z,86.07
2018-11-20T05:40:12.216Z,85.69
2018-11-20T05:41:12.234Z,85.88
2018-11-20T05:42:12.232Z,85.88
2018-11-20T05:43:12.248Z,85.88
2018-11-20T05:44:12.255Z,85.88
2018-11-20T05:45:12.270Z,85.88
2018-11-20T05:46:12.276Z,85.78
2018-11-20T05:47:12.286Z,85.88
2018-11-20T05:48:12.297Z,85.88
2018-11-20T05:49:12.307Z,85.74
2018-11-20T05:50:12.318Z,86.22
2018-11-20T05:51:12.325Z,85.88
2018-11-20T05:52:12.355Z,85.88
2018-11-20T05:53:12.351Z,85.88
2018-11-20T05:54:12.368Z,85.97
2018-11-20T05:55:12.371Z,85.69
2018-11-20T05:56:12.383Z,86.12
2018-11-20T05:57:12.396Z,86.07
2018-11-20T05:58:12.490Z,85.88
2018-11-20T05:59:12.417Z,85.69
2018-11-20T06:00:12.432Z,85.74
2018-11-20T06:01:12.444Z,85.88
2018-11-20T06:02:12.452Z,86.16
2018-11-20T06:03:12.461Z,86.16
2018-11-20T06:04:12.471Z,86.31
2018-11-20T06:05:12.483Z,85.78
2018-11-20T06:06:12.545Z,85.69
2018-11-20T06:07:12.513Z,85.78
2018-11-20T06:08:12.518Z,86.16
2018-11-20T06:09:12.523Z,86.07
2018-11-20T06:10:12.541Z,85.69
2018-11-20T06:11:12.550Z,85.88
2018-11-20T06:12:12.562Z,85.88
2018-11-20T06:13:12.575Z,85.69
2018-11-20T06:14:12.591Z,85.69
2018-11-20T06:15:12.591Z,85.60
2018-11-20T06:16:12.602Z,85.97
2018-11-20T06:17:12.612Z,85.88
2018-11-20T06:18:12.627Z,85.88
2018-11-20T06:19:12.637Z,85.88
2018-11-20T06:20:12.645Z,85.65
2018-11-20T06:21:12.662Z,85.88
2018-11-20T06:22:12.669Z,85.88
2018-11-20T06:23:12.679Z,86.07
2018-11-20T06:24:12.720Z,85.78
2018-11-20T06:25:12.722Z,85.69
2018-11-20T06:26:12.715Z,86.26
2018-11-20T06:27:12.750Z,86.03
2018-11-20T06:28:12.764Z,86.26
2018-11-20T06:29:12.785Z,86.16
2018-11-20T06:30:12.757Z,86.26
2018-11-20T06:31:12.767Z,85.78
2018-11-20T06:32:12.781Z,85.78
2018-11-20T06:33:12.790Z,85.88
2018-11-20T06:34:12.817Z,85.74
2018-11-20T06:35:12.812Z,86.07
2018-11-20T06:36:12.820Z,85.97
2018-11-20T06:37:12.839Z,85.03
2018-11-20T06:38:12.847Z,85.50
2018-11-20T06:39:12.855Z,85.13
2018-11-20T06:40:12.868Z,85.78
2018-11-20T06:41:12.924Z,85.60
2018-11-20T06:42:12.916Z,85.50
2018-11-20T06:43:12.897Z,85.69
2018-11-20T06:44:12.915Z,85.78
2018-11-20T06:45:12.927Z,85.97
2018-11-20T06:46:12.942Z,85.78
2018-11-20T06:47:13.007Z,85.50
2018-11-20T06:48:12.973Z,85.50
2018-11-20T06:49:12.972Z,85.41
2018-11-20T06:50:12.987Z,85.31
2018-11-20T06:51:12.996Z,85.97
2018-11-20T06:52:13.006Z,86.07
2018-11-20T06:53:13.189Z,85.88
2018-11-20T06:54:13.028Z,85.88
2018-11-20T06:55:13.036Z,85.88
2018-11-20T06:56:13.044Z,85.41
2018-11-20T06:57:13.060Z,85.22
2018-11-20T06:58:13.077Z,85.41
2018-11-20T06:59:13.076Z,85.69
2018-11-20T07:00:13.090Z,85.41
2018-11-20T07:01:13.106Z,85.03
2018-11-20T07:02:13.114Z,85.69
2018-11-20T07:03:13.129Z,86.07
2018-11-20T07:04:13.140Z,85.50
2018-11-20T07:05:13.147Z,85.31
2018-11-20T07:06:13.158Z,84.65
2018-11-20T07:07:13.295Z,85.22
2018-11-20T07:08:13.324Z,85.97
2018-11-20T07:09:13.189Z,85.31
2018-11-20T07:10:13.204Z,84.94
2018-11-20T07:11:13.212Z,84.94
2018-11-20T07:12:13.218Z,85.60
2018-11-20T07:13:13.236Z,85.50
2018-11-20T07:14:13.241Z,85.69
2018-11-20T07:15:13.337Z,85.88
2018-11-20T07:16:13.446Z,85.88
2018-11-20T07:17:13.276Z,85.03
2018-11-20T07:18:13.289Z,85.22
2018-11-20T07:19:13.312Z,85.31
2018-11-20T07:20:13.316Z,85.22
2018-11-20T07:21:13.347Z,85.03
2018-11-20T07:22:13.335Z,85.50
2018-11-20T07:23:13.351Z,85.13
2018-11-20T07:24:13.369Z,85.31
2018-11-20T07:25:13.364Z,85.50
2018-11-20T07:26:13.385Z,85.22
2018-11-20T07:27:13.411Z,85.22
2018-11-20T07:28:13.407Z,85.22
2018-11-20T07:29:13.407Z,84.84
2018-11-20T07:30:13.552Z,84.74
2018-11-20T07:31:13.474Z,84.65
2018-11-20T07:32:13.438Z,85.13
2018-11-20T07:33:13.449Z,84.74
2018-11-20T07:34:13.481Z,84.84
2018-11-20T07:35:13.482Z,84.94
2018-11-20T07:36:13.538Z,84.65
2018-11-20T07:37:13.692Z,84.55
2018-11-20T07:38:13.505Z,84.84
2018-11-20T07:39:13.520Z,85.13
2018-11-20T07:40:13.531Z,84.84
2018-11-20T07:41:13.551Z,85.31
2018-11-20T07:42:13.561Z,85.03
2018-11-20T07:43:13.582Z,84.55
2018-11-20T07:44:13.586Z,84.94
2018-11-20T07:45:13.589Z,84.94
2018-11-20T07:46:13.602Z,85.13
2018-11-20T07:47:13.601Z,84.74
2018-11-20T07:48:13.624Z,84.27
2018-11-20T07:49:13.621Z,84.36
2018-11-20T07:50:13.640Z,84.65
2018-11-20T07:51:13.666Z,84.84
2018-11-20T07:52:13.664Z,84.65
2018-11-20T07:53:13.691Z,84.65
2018-11-20T07:54:13.684Z,84.94
2018-11-20T07:55:13.730Z,84.74
2018-11-20T07:56:13.811Z,85.13
2018-11-20T07:57:13.711Z,84.74
2018-11-20T07:58:13.724Z,84.55
2018-11-20T07:59:13.742Z,84.74
2018-11-20T08:00:13.750Z,84.27
2018-11-20T08:01:13.778Z,84.74
2018-11-20T08:02:13.796Z,84.36
2018-11-20T08:03:13.782Z,84.94
2018-11-20T08:04:13.792Z,84.84
2018-11-20T08:05:13.802Z,84.65
2018-11-20T08:06:13.813Z,84.65
2018-11-20T08:07:13.829Z,84.08
2018-11-20T08:08:13.851Z,84.65
2018-11-20T08:09:13.843Z,84.55
2018-11-20T08:10:13.890Z,84.65
2018-11-20T08:11:13.877Z,84.55
2018-11-20T08:12:13.883Z,84.65
2018-11-20T08:13:13.893Z,84.46
2018-11-20T08:14:13.902Z,84.46
2018-11-20T08:15:13.938Z,84.36
2018-11-20T08:16:13.928Z,84.46
2018-11-20T08:17:13.939Z,84.46
2018-11-20T08:18:13.953Z,84.65
2018-11-20T08:19:13.962Z,84.27
2018-11-20T08:20:13.973Z,84.46
2018-11-20T08:21:13.978Z,84.65
2018-11-20T08:22:14.001Z,84.46
2018-11-20T08:23:13.999Z,84.36
2018-11-20T08:24:14.015Z,84.36
2018-11-20T08:25:14.042Z,85.03
2018-11-20T08:26:14.187Z,84.94
2018-11-20T08:27:14.044Z,85.50
2018-11-20T08:28:14.057Z,84.94
2018-11-20T08:29:14.071Z,85.13
2018-11-20T08:30:14.086Z,84.84
2018-11-20T08:31:14.096Z,84.74
2018-11-20T08:32:14.108Z,84.65
2018-11-20T08:33:14.125Z,84.55
2018-11-20T08:34:14.176Z,84.65
2018-11-20T08:35:14.192Z,84.94
2018-11-20T08:36:14.145Z,84.94
2018-11-20T08:37:14.204Z,84.84
2018-11-20T08:38:14.171Z,84.65
2018-11-20T08:39:14.183Z,84.27
2018-11-20T08:40:14.194Z,84.94
2018-11-20T08:41:14.205Z,84.94
2018-11-20T08:42:14.285Z,84.65
2018-11-20T08:43:14.225Z,84.94
2018-11-20T08:44:14.252Z,84.94
2018-11-20T08:45:14.258Z,84.74
2018-11-20T08:46:14.259Z,84.55
2018-11-20T08:47:14.264Z,84.46
2018-11-20T08:48:14.345Z,84.55
2018-11-20T08:49:14.289Z,84.55
2018-11-20T08:50:14.315Z,84.27
2018-11-20T08:51:14.313Z,84.46
2018-11-20T08:52:14.326Z,84.46
2018-11-20T08:53:14.339Z,83.89
2018-11-20T08:54:14.348Z,84.46
2018-11-20T08:55:14.358Z,84.55
2018-11-20T08:56:14.380Z,84.65
2018-11-20T08:57:14.381Z,84.55
2018-11-20T08:58:14.393Z,84.08
2018-11-20T08:59:14.400Z,84.27
2018-11-20T09:00:14.419Z,83.70
2018-11-20T09:01:14.429Z,84.46
2018-11-20T09:02:14.545Z,84.65
2018-11-20T09:03:14.583Z,84.08
2018-11-20T09:04:14.471Z,84.36
2018-11-20T09:05:14.474Z,83.89
2018-11-20T09:06:14.480Z,83.89
2018-11-20T09:07:14.500Z,84.17
2018-11-20T09:08:14.506Z,83.80
2018-11-20T09:09:14.520Z,83.98
2018-11-20T09:10:14.545Z,84.08
2018-11-20T09:11:14.548Z,83.98
2018-11-20T09:12:14.553Z,83.89
2018-11-20T09:13:14.560Z,84.08
2018-11-20T09:14:14.571Z,83.98
2018-11-20T09:15:14.583Z,84.08
2018-11-20T09:16:14.594Z,84.08
2018-11-20T09:17:14.602Z,83.80
2018-11-20T09:18:14.625Z,83.51
2018-11-20T09:19:14.626Z,83.94
2018-11-20T09:20:14.691Z,84.27
2018-11-20T09:21:14.738Z,83.89
2018-11-20T09:22:14.661Z,83.70
2018-11-20T09:23:14.677Z,83.74
2018-11-20T09:24:14.702Z,83.70
2018-11-20T09:25:14.692Z,84.17
2018-11-20T09:26:14.710Z,84.08
2018-11-20T09:27:14.721Z,83.98
2018-11-20T09:28:14.731Z,83.94
2018-11-20T09:29:14.744Z,84.41
2018-11-20T09:30:14.755Z,83.65
2018-11-20T09:31:14.757Z,83.74
2018-11-20T09:32:14.776Z,83.36
2018-11-20T09:33:14.795Z,83.51
2018-11-20T09:34:14.843Z,83.32
2018-11-20T09:35:15.055Z,83.65
2018-11-20T09:36:14.826Z,83.51
2018-11-20T09:37:14.839Z,83.70
2018-11-20T09:38:14.849Z,83.70
2018-11-20T09:39:14.850Z,83.51
2018-11-20T09:40:14.865Z,83.74
2018-11-20T09:41:14.882Z,83.65
2018-11-20T09:42:14.888Z,83.42
2018-11-20T09:43:14.898Z,83.74
2018-11-20T09:44:14.908Z,83.74
2018-11-20T09:45:14.932Z,83.94
2018-11-20T09:46:14.948Z,83.65
2018-11-20T09:47:14.946Z,83.55
2018-11-20T09:48:14.960Z,84.22
2018-11-20T09:49:14.962Z,83.65
2018-11-20T09:50:14.976Z,83.84
2018-11-20T09:51:14.990Z,83.84
2018-11-20T09:52:15.046Z,83.55
2018-11-20T09:53:15.009Z,83.55
2018-11-20T09:54:15.084Z,83.84
2018-11-20T09:55:15.033Z,83.74
2018-11-20T09:56:15.046Z,83.36
2018-11-20T09:57:15.059Z,83.65
2018-11-20T09:58:15.076Z,82.89
2018-11-20T09:59:15.107Z,82.98
2018-11-20T10:00:15.092Z,83.55
2018-11-20T10:01:15.101Z,83.74
2018-11-20T10:02:15.112Z,83.17
2018-11-20T10:03:15.126Z,83.36
2018-11-20T10:04:15.137Z,83.27
2018-11-20T10:05:15.145Z,83.17
2018-11-20T10:06:15.159Z,83.17
2018-11-20T10:07:15.216Z,83.08
2018-11-20T10:08:15.207Z,83.27
2018-11-20T10:09:15.200Z,83.27
2018-11-20T10:10:15.230Z,83.55
2018-11-20T10:11:15.216Z,83.74
2018-11-20T10:12:15.233Z,83.55
2018-11-20T10:13:15.242Z,83.17
2018-11-20T10:14:15.372Z,82.79
2018-11-20T10:15:15.295Z,83.27
2018-11-20T10:16:15.275Z,83.08
2018-11-20T10:17:15.285Z,83.27
2018-11-20T10:18:15.296Z,83.27
2018-11-20T10:19:15.310Z,83.08
2018-11-20T10:20:15.319Z,83.17
2018-11-20T10:21:15.344Z,82.51
2018-11-20T10:22:15.344Z,82.98
2018-11-20T10:23:15.359Z,82.89
2018-11-20T10:24:15.364Z,82.60
2018-11-20T10:25:15.391Z,82.32
2018-11-20T10:26:15.547Z,82.51
2018-11-20T10:27:15.399Z,82.23
2018-11-20T10:28:15.417Z,82.13
2018-11-20T10:29:15.427Z,82.60
2018-11-20T10:30:15.434Z,82.60
2018-11-20T10:31:15.453Z,82.42
2018-11-20T10:32:15.467Z,82.42
2018-11-20T10:33:15.471Z,83.08
2018-11-20T10:34:15.550Z,82.89
2018-11-20T10:35:15.494Z,82.60
2018-11-20T10:36:15.505Z,82.60
2018-11-20T10:37:15.523Z,82.60
2018-11-20T10:38:15.529Z,82.32
2018-11-20T10:39:15.539Z,82.42
2018-11-20T10:40:15.585Z,82.60
2018-11-20T10:41:15.562Z,82.89
2018-11-20T10:42:15.580Z,81.85
2018-11-20T10:43:15.588Z,82.13
2018-11-20T10:44:15.607Z,82.32
2018-11-20T10:45:15.643Z,82.23
2018-11-20T10:46:15.724Z,82.32
2018-11-20T10:47:15.634Z,82.04
2018-11-20T10:48:15.642Z,82.04
2018-11-20T10:49:15.664Z,82.04
2018-11-20T10:50:15.688Z,82.04
2018-11-20T10:51:15.691Z,82.51
2018-11-20T10:52:15.699Z,81.75
2018-11-20T10:53:15.713Z,81.85
2018-11-20T10:54:15.716Z,82.36
2018-11-20T10:55:15.726Z,81.88
2018-11-20T10:56:15.735Z,82.08
2018-11-20T10:57:15.758Z,81.32
2018-11-20T10:58:15.764Z,81.70
2018-11-20T10:59:15.771Z,81.60
2018-11-20T11:00:15.785Z,81.79
2018-11-20T11:01:15.798Z,81.79
2018-11-20T11:02:15.807Z,81.70
2018-11-20T11:03:15.825Z,81.79
2018-11-20T11:04:15.914Z,81.98
2018-11-20T11:05:15.848Z,82.08
2018-11-20T11:06:15.893Z,81.32
2018-11-20T11:07:15.932Z,81.70
2018-11-20T11:08:15.970Z,81.70
2018-11-20T11:09:15.896Z,81.79
2018-11-20T11:10:15.912Z,81.79
2018-11-20T11:11:15.931Z,81.32
2018-11-20T11:12:16.081Z,81.13
2018-11-20T11:13:15.947Z,81.04
2018-11-20T11:14:15.960Z,80.65
2018-11-20T11:15:15.968Z,81.60
2018-11-20T11:16:15.977Z,80.84
2018-11-20T11:17:15.988Z,80.94
2018-11-20T11:18:16.048Z,81.04
2018-11-20T11:19:16.007Z,81.04
2018-11-20T11:20:16.037Z,81.13
2018-11-20T11:21:16.045Z,80.84
2018-11-20T11:22:16.049Z,81.04
2018-11-20T11:23:16.063Z,81.13
2018-11-20T11:24:16.082Z,80.84
2018-11-20T11:25:16.084Z,80.37
2018-11-20T11:26:16.100Z,80.56
2018-11-20T11:27:16.113Z,80.65
2018-11-20T11:28:16.119Z,80.84
2018-11-20T11:29:16.138Z,81.41
2018-11-20T11:30:16.145Z,80.94
2018-11-20T11:31:16.161Z,80.18
2018-11-20T11:32:16.183Z,79.71
2018-11-20T11:33:16.186Z,80.27
2018-11-20T11:34:16.193Z,80.84
2018-11-20T11:35:16.208Z,80.75
2018-11-20T11:36:16.255Z,80.27
2018-11-20T11:37:16.233Z,79.80
2018-11-20T11:38:16.250Z,79.80
2018-11-20T11:39:16.251Z,80.27
2018-11-20T11:40:16.267Z,80.37
2018-11-20T11:41:16.322Z,80.46
2018-11-20T11:42:16.301Z,79.90
2018-11-20T11:43:16.305Z,79.90
2018-11-20T11:44:16.311Z,80.65
2018-11-20T11:45:16.327Z,80.60
2018-11-20T11:46:16.338Z,80.03
2018-11-20T11:47:16.983Z,80.13
2018-11-20T11:48:16.399Z,79.61
2018-11-20T11:49:16.376Z,79.94
2018-11-20T11:50:16.387Z,79.94
2018-11-20T11:51:16.399Z,79.65
2018-11-20T11:52:16.467Z,80.22
2018-11-20T11:53:16.422Z,79.27
2018-11-20T11:54:16.451Z,79.33
2018-11-20T11:55:16.452Z,79.27
2018-11-20T11:56:16.457Z,78.89
2018-11-20T11:57:16.503Z,78.99
2018-11-20T11:58:18.725Z,78.80
2018-11-20T11:59:16.564Z,78.99
2018-11-20T12:00:16.519Z,78.89
2018-11-20T12:01:16.565Z,78.99
2018-11-20T12:03:16.559Z,79.08
2018-11-20T12:04:16.589Z,79.46
2018-11-20T12:05:16.578Z,79.27
2018-11-20T12:06:16.638Z,78.99
2018-11-20T12:07:16.637Z,79.17
2018-11-20T12:08:16.654Z,79.08
2018-11-20T12:09:16.661Z,78.80
2018-11-20T12:10:16.677Z,78.99
2018-11-20T12:11:16.700Z,78.70
2018-11-20T12:12:16.708Z,79.36
2018-11-20T12:13:37.732Z,79.17
2018-11-20T12:14:16.723Z,78.70
2018-11-20T12:15:16.730Z,78.99
2018-11-20T12:16:16.701Z,79.36
2018-11-20T12:17:16.788Z,79.36
2018-11-20T12:18:16.902Z,79.55
2018-11-20T12:19:16.764Z,78.99
2018-11-20T12:20:16.760Z,78.89
2018-11-20T12:21:16.834Z,79.36
2018-11-20T12:22:17.646Z,79.36
2018-11-20T12:23:16.823Z,79.80
2018-11-20T12:24:16.878Z,79.55
2018-11-20T12:25:21.633Z,79.55
2018-11-20T12:26:16.887Z,79.36
2018-11-20T12:27:16.889Z,79.36
2018-11-20T12:28:16.956Z,79.36
2018-11-20T12:29:17.121Z,79.55
2018-11-20T12:30:16.935Z,79.27
2018-11-20T12:31:16.990Z,79.36
2018-11-20T12:32:16.960Z,79.27
2018-11-20T12:33:16.915Z,79.27
2018-11-20T12:34:18.945Z,80.13
2018-11-20T12:35:16.939Z,79.94
2018-11-20T12:36:16.954Z,79.84
2018-11-20T12:37:16.964Z,80.13
2018-11-20T12:38:17.233Z,79.99
2018-11-20T12:39:16.987Z,80.22
2018-11-20T12:40:17.000Z,79.94
2018-11-20T12:41:17.016Z,80.22
2018-11-20T12:42:17.026Z,80.27
2018-11-20T12:43:18.254Z,79.90
2018-11-20T12:44:18.154Z,79.80
2018-11-20T12:45:17.063Z,79.99
2018-11-20T12:46:17.073Z,79.80
2018-11-20T12:47:17.088Z,80.69
2018-11-20T12:48:17.095Z,80.08
2018-11-20T12:49:19.070Z,79.71
2018-11-20T12:50:17.132Z,79.71
2018-11-20T12:51:17.149Z,79.90
2018-11-20T12:52:17.146Z,79.74
2018-11-20T12:53:17.200Z,80.08
2018-11-20T12:54:17.170Z,79.74
2018-11-20T12:55:17.182Z,79.90
2018-11-20T12:56:17.196Z,80.32
2018-11-20T12:57:17.212Z,80.08
2018-11-20T12:58:17.239Z,79.71
2018-11-20T12:59:17.231Z,80.60
2018-11-20T13:00:17.250Z,80.37
2018-11-20T13:01:17.265Z,80.13
2018-11-20T13:02:17.286Z,79.90
2018-11-20T13:03:17.287Z,80.56
2018-11-20T13:04:17.297Z,80.27
2018-11-20T13:05:17.303Z,80.03
2018-11-20T13:06:17.311Z,79.90
2018-11-20T13:07:17.340Z,80.22
2018-11-20T13:08:17.340Z,80.65
2018-11-20T13:09:17.369Z,80.37
2018-11-20T13:10:17.370Z,80.65
2018-11-20T13:11:17.383Z,80.56
2018-11-20T13:12:17.389Z,81.04
2018-11-20T13:13:18.155Z,81.17
2018-11-20T13:14:17.412Z,80.94
2018-11-20T13:15:17.428Z,80.84
2018-11-20T13:16:17.440Z,80.94
2018-11-20T13:17:17.448Z,80.84
2018-11-20T13:18:17.465Z,81.32
2018-11-20T13:19:17.479Z,81.32
2018-11-20T13:20:17.502Z,81.32
2018-11-20T13:21:17.500Z,81.04
2018-11-20T13:22:17.510Z,80.94
2018-11-20T13:23:17.522Z,81.04
2018-11-20T13:24:17.536Z,81.32
2018-11-20T13:25:17.548Z,81.13
2018-11-20T13:26:17.557Z,81.13
2018-11-20T13:27:17.570Z,80.94
2018-11-20T13:28:17.582Z,81.32
2018-11-20T13:29:17.596Z,81.04
2018-11-20T13:30:17.609Z,81.04
2018-11-20T13:31:17.616Z,80.84
2018-11-20T13:32:17.630Z,81.04
2018-11-20T13:33:17.889Z,81.04
2018-11-20T13:34:20.959Z,81.23
2018-11-20T13:35:17.664Z,81.51
2018-11-20T13:36:17.681Z,81.51
2018-11-20T13:37:18.233Z,81.70
2018-11-20T13:38:17.708Z,81.70
2018-11-20T13:39:17.716Z,81.32
2018-11-20T13:40:17.723Z,81.70
2018-11-20T13:41:17.739Z,81.88
2018-11-20T13:42:17.760Z,81.70
2018-11-20T13:43:17.762Z,81.79
2018-11-20T13:44:17.774Z,81.51
2018-11-20T13:45:18.680Z,82.17
2018-11-20T13:46:17.797Z,82.27
2018-11-20T13:47:17.810Z,81.98
2018-11-20T13:48:17.822Z,82.36
2018-11-20T13:49:17.833Z,82.65
2018-11-20T13:50:17.844Z,82.46
2018-11-20T13:51:17.856Z,82.65
2018-11-20T13:52:17.871Z,83.59
2018-11-20T13:53:17.880Z,83.22
2018-11-20T13:54:17.892Z,83.59
2018-11-20T13:55:17.904Z,83.40
2018-11-20T13:56:17.912Z,83.88
2018-11-20T13:57:17.939Z,83.88
2018-11-20T13:58:17.946Z,83.78
2018-11-20T13:59:17.949Z,84.17
2018-11-20T14:00:17.965Z,84.55
2018-11-20T14:01:17.981Z,84.74
2018-11-20T14:02:17.985Z,84.83
2018-11-20T14:03:17.998Z,84.17
2018-11-20T14:04:18.014Z,84.55
2018-11-20T14:05:18.022Z,84.55
2018-11-20T14:06:18.040Z,84.45
2018-11-20T14:07:18.049Z,84.55
2018-11-20T14:08:18.059Z,84.50
2018-11-20T14:09:18.068Z,84.50
2018-11-20T14:10:18.081Z,84.64
2018-11-20T14:11:18.092Z,84.31
2018-11-20T14:12:18.123Z,84.50
2018-11-20T14:13:18.123Z,84.92
2018-11-20T14:14:18.139Z,84.31
2018-11-20T14:15:18.144Z,84.78
2018-11-20T14:16:18.153Z,84.83
2018-11-20T14:17:18.181Z,84.31
2018-11-20T14:18:18.172Z,84.36
2018-11-20T14:19:18.606Z,84.83
2018-11-20T14:20:18.196Z,84.78
2018-11-20T14:21:18.211Z,85.11
2018-11-20T14:22:18.220Z,85.11
2018-11-20T14:23:18.245Z,84.83
2018-11-20T14:24:18.239Z,84.98
2018-11-20T14:25:18.258Z,85.17
2018-11-20T14:26:18.268Z,85.02
2018-11-20T14:27:18.277Z,84.92
2018-11-20T14:28:18.297Z,84.64
2018-11-20T14:29:18.301Z,84.83
2018-11-20T14:30:18.312Z,85.11
2018-11-20T14:31:18.325Z,85.26
2018-11-20T14:32:18.340Z,85.40
2018-11-20T14:33:18.349Z,85.78
2018-11-20T14:34:18.363Z,84.92
2018-11-20T14:35:18.370Z,85.30
2018-11-20T14:36:18.393Z,85.17
2018-11-20T14:37:18.409Z,84.88
2018-11-20T14:38:18.413Z,85.17
2018-11-20T14:39:18.422Z,85.26
2018-11-20T14:40:18.429Z,85.17
2018-11-20T14:41:18.450Z,85.02
2018-11-20T14:42:18.452Z,84.92
2018-11-20T14:43:18.461Z,84.92
2018-11-20T14:44:18.476Z,84.98
2018-11-20T14:45:18.487Z,85.74
2018-11-20T14:46:18.501Z,84.88
2018-11-20T14:47:18.506Z,85.17
2018-11-20T14:48:18.542Z,85.83
2018-11-20T14:49:18.532Z,85.45
2018-11-20T14:50:18.559Z,85.45
2018-11-20T14:51:18.559Z,85.07
2018-11-20T14:52:18.573Z,84.98
2018-11-20T14:53:18.587Z,85.40
2018-11-20T14:54:18.592Z,85.30
2018-11-20T14:55:18.607Z,85.87
2018-11-20T14:56:18.617Z,85.68
2018-11-20T14:57:18.625Z,85.40
2018-11-20T14:58:18.639Z,85.40
2018-11-20T14:59:18.661Z,85.26
2018-11-20T15:00:18.666Z,85.83
2018-11-20T15:01:18.671Z,85.74
2018-11-20T15:02:18.688Z,86.11
2018-11-20T15:03:18.706Z,86.02
2018-11-20T15:04:18.713Z,85.93
2018-11-20T15:05:18.720Z,86.16
2018-11-20T15:06:18.731Z,85.74
2018-11-20T15:07:18.750Z,86.25
2018-11-20T15:08:18.751Z,85.78
2018-11-20T15:09:18.767Z,85.83
2018-11-20T15:10:18.784Z,86.16
2018-11-20T15:11:18.784Z,86.21
2018-11-20T15:12:18.806Z,85.83
2018-11-20T15:13:18.812Z,85.83
2018-11-20T15:14:18.839Z,86.11
2018-11-20T15:15:18.838Z,86.16
2018-11-20T15:16:18.843Z,85.64
2018-11-20T15:17:18.859Z,85.93
2018-11-20T15:18:18.873Z,85.74
2018-11-20T15:19:18.881Z,85.97
2018-11-20T15:20:18.894Z,86.30
2018-11-20T15:21:18.912Z,85.74
2018-11-20T15:22:18.917Z,86.11
2018-11-20T15:23:18.927Z,86.30
2018-11-20T15:24:18.939Z,86.11
2018-11-20T15:25:18.963Z,86.11
2018-11-20T15:26:18.973Z,86.44
2018-11-20T15:27:18.973Z,86.11
2018-11-20T15:28:18.983Z,86.02
2018-11-20T15:29:19.003Z,86.11
2018-11-20T15:30:19.012Z,86.40
2018-11-20T15:31:19.017Z,86.59
2018-11-20T15:32:19.041Z,87.11
2018-11-20T15:33:19.042Z,86.87
2018-11-20T15:34:19.055Z,87.06
2018-11-20T15:35:19.064Z,86.78
2018-11-20T15:36:19.077Z,87.16
2018-11-20T15:37:19.089Z,86.87
2018-11-20T15:38:19.106Z,87.01
2018-11-20T15:39:19.127Z,86.68
2018-11-20T15:40:19.130Z,86.68
2018-11-20T15:41:19.136Z,87.06
2018-11-20T15:42:19.149Z,86.97
2018-11-20T15:43:19.172Z,86.87
2018-11-20T15:44:19.171Z,86.59
2018-11-20T15:45:19.184Z,86.97
2018-11-20T15:46:19.192Z,86.87
2018-11-20T15:47:19.215Z,87.06
2018-11-20T15:48:19.216Z,86.91
2018-11-20T15:49:19.226Z,87.06
2018-11-20T15:50:19.243Z,86.87
2018-11-20T15:51:19.249Z,86.87
2018-11-20T15:52:19.263Z,86.87
2018-11-20T15:53:19.273Z,86.87
2018-11-20T15:54:19.295Z,86.68
2018-11-20T15:55:19.298Z,87.06
2018-11-20T15:56:19.353Z,86.68
2018-11-20T15:57:19.320Z,87.16
2018-11-20T15:58:19.334Z,87.16
2018-11-20T15:59:19.343Z,86.97
2018-11-20T16:00:19.356Z,86.49
2018-11-20T16:01:23.275Z,86.68
2018-11-20T16:02:19.385Z,86.97
2018-11-20T16:03:23.064Z,87.06
2018-11-20T16:04:19.414Z,86.97
2018-11-20T16:05:19.421Z,86.87
2018-11-20T16:06:19.429Z,86.78
2018-11-20T16:07:19.440Z,87.06
2018-11-20T16:08:19.453Z,87.06
2018-11-20T16:09:19.462Z,86.87
2018-11-20T16:10:19.484Z,87.06
2018-11-20T16:11:19.484Z,87.35
2018-11-20T16:12:19.507Z,87.25
2018-11-20T16:13:19.543Z,87.54
2018-11-20T16:14:19.542Z,87.35
2018-11-20T16:15:19.533Z,86.97
2018-11-20T16:16:19.541Z,87.25
2018-11-20T16:17:19.550Z,87.16
2018-11-20T16:18:19.562Z,87.25
2018-11-20T16:19:19.574Z,86.78
2018-11-20T16:20:19.587Z,86.97
2018-11-20T16:21:19.596Z,87.06
2018-11-20T16:22:19.613Z,87.06
2018-11-20T16:23:19.636Z,86.78
2018-11-20T16:24:19.641Z,86.82
2018-11-20T16:25:19.649Z,86.87
2018-11-20T16:26:19.656Z,86.82
2018-11-20T16:27:19.670Z,87.11
2018-11-20T16:28:19.679Z,87.11
2018-11-20T16:29:19.691Z,86.35
2018-11-20T16:30:19.714Z,86.25
2018-11-20T16:31:19.714Z,86.44